sensor_id;sensor_type;location;lat;lon;timestamp;P1;durP1;ratioP1;P2;durP2;ratioP2
66089;SDS011;53113;45.602;11.904;2022-07-04T00:00:43;11.30;;;7.10;;
66089;SDS011;53113;45.602;11.904;2022-07-04T00:03:09;10.90;;;7.10;;
66089;SDS011;53113;45.602;11.904;2022-07-04T00:05:35;10.40;;;6.90;;
66089;SDS011;53113;45.602;11.904;2022-07-04T00:08:02;11.30;;;7.60;;
66089;SDS011;53113;45.602;11.904;2022-07-04T00:10:28;12.10;;;7.00;;
66089;SDS011;53113;45.602;11.904;2022-07-04T00:12:54;10.70;;;7.00;;
66089;SDS011;53113;45.602;11.904;2022-07-04T00:15:20;11.70;;;6.70;;
66089;SDS011;53113;45.602;11.904;2022-07-04T00:17:46;13.40;;;7.10;;
66089;SDS011;53113;45.602;11.904;2022-07-04T00:20:12;12.10;;;7.40;;
66089;SDS011;53113;45.602;11.904;2022-07-04T00:22:37;12.20;;;7.50;;
66089;SDS011;53113;45.602;11.904;2022-07-04T00:25:04;11.30;;;8.00;;
66089;SDS011;53113;45.602;11.904;2022-07-04T00:27:31;11.40;;;6.70;;
66089;SDS011;53113;45.602;11.904;2022-07-04T00:29:57;11.50;;;7.70;;
66089;SDS011;53113;45.602;11.904;2022-07-04T00:32:23;11.60;;;7.90;;
66089;SDS011;53113;45.602;11.904;2022-07-04T00:34:49;11.90;;;7.80;;
66089;SDS011;53113;45.602;11.904;2022-07-04T00:37:15;11.20;;;8.10;;
66089;SDS011;53113;45.602;11.904;2022-07-04T00:39:41;11.10;;;8.30;;
66089;SDS011;53113;45.602;11.904;2022-07-04T00:42:08;9.60;;;7.50;;
66089;SDS011;53113;45.602;11.904;2022-07-04T00:44:34;11.80;;;8.10;;
66089;SDS011;53113;45.602;11.904;2022-07-04T00:47:03;11.00;;;7.80;;
66089;SDS011;53113;45.602;11.904;2022-07-04T00:49:30;12.10;;;9.00;;
66089;SDS011;53113;45.602;11.904;2022-07-04T00:51:57;11.90;;;8.80;;
66089;SDS011;53113;45.602;11.904;2022-07-04T00:54:30;11.90;;;8.40;;
66089;SDS011;53113;45.602;11.904;2022-07-04T00:56:58;11.10;;;8.40;;
66089;SDS011;53113;45.602;11.904;2022-07-04T00:59:25;13.20;;;8.70;;
66089;SDS011;53113;45.602;11.904;2022-07-04T01:01:51;10.60;;;8.40;;
66089;SDS011;53113;45.602;11.904;2022-07-04T01:04:17;10.10;;;7.80;;
66089;SDS011;53113;45.602;11.904;2022-07-04T01:06:44;10.80;;;8.30;;
66089;SDS011;53113;45.602;11.904;2022-07-04T01:09:10;11.90;;;8.30;;
66089;SDS011;53113;45.602;11.904;2022-07-04T01:11:37;9.90;;;8.00;;
66089;SDS011;53113;45.602;11.904;2022-07-04T01:14:03;11.10;;;8.40;;
66089;SDS011;53113;45.602;11.904;2022-07-04T01:16:31;11.40;;;8.80;;
66089;SDS011;53113;45.602;11.904;2022-07-04T01:18:59;11.40;;;8.10;;
66089;SDS011;53113;45.602;11.904;2022-07-04T01:21:25;13.30;;;8.80;;
66089;SDS011;53113;45.602;11.904;2022-07-04T01:23:51;10.90;;;8.50;;
66089;SDS011;53113;45.602;11.904;2022-07-04T01:26:17;11.70;;;8.20;;
66089;SDS011;53113;45.602;11.904;2022-07-04T01:28:43;12.30;;;8.60;;
66089;SDS011;53113;45.602;11.904;2022-07-04T01:31:10;12.60;;;9.00;;
66089;SDS011;53113;45.602;11.904;2022-07-04T01:33:36;13.30;;;8.10;;
66089;SDS011;53113;45.602;11.904;2022-07-04T01:36:01;11.10;;;8.20;;
66089;SDS011;53113;45.602;11.904;2022-07-04T01:38:27;12.10;;;8.50;;
66089;SDS011;53113;45.602;11.904;2022-07-04T01:40:53;12.60;;;8.50;;
66089;SDS011;53113;45.602;11.904;2022-07-04T01:43:19;10.50;;;8.70;;
66089;SDS011;53113;45.602;11.904;2022-07-04T01:45:45;12.10;;;8.10;;
66089;SDS011;53113;45.602;11.904;2022-07-04T01:48:12;11.00;;;8.50;;
66089;SDS011;53113;45.602;11.904;2022-07-04T01:50:38;10.80;;;8.40;;
66089;SDS011;53113;45.602;11.904;2022-07-04T01:53:05;10.80;;;8.50;;
66089;SDS011;53113;45.602;11.904;2022-07-04T01:55:31;11.40;;;8.40;;
66089;SDS011;53113;45.602;11.904;2022-07-04T01:57:57;12.40;;;8.30;;
66089;SDS011;53113;45.602;11.904;2022-07-04T02:00:24;12.80;;;7.60;;
66089;SDS011;53113;45.602;11.904;2022-07-04T02:03:09;12.30;;;8.00;;
66089;SDS011;53113;45.602;11.904;2022-07-04T02:05:35;11.10;;;7.40;;
66089;SDS011;53113;45.602;11.904;2022-07-04T02:08:03;11.20;;;8.30;;
66089;SDS011;53113;45.602;11.904;2022-07-04T02:10:30;11.30;;;8.60;;
66089;SDS011;53113;45.602;11.904;2022-07-04T02:12:56;10.30;;;8.00;;
66089;SDS011;53113;45.602;11.904;2022-07-04T02:15:33;11.50;;;7.50;;
66089;SDS011;53113;45.602;11.904;2022-07-04T02:18:02;10.40;;;7.60;;
66089;SDS011;53113;45.602;11.904;2022-07-04T02:20:29;10.20;;;7.10;;
66089;SDS011;53113;45.602;11.904;2022-07-04T02:22:55;11.50;;;7.30;;
66089;SDS011;53113;45.602;11.904;2022-07-04T02:25:21;11.40;;;6.90;;
66089;SDS011;53113;45.602;11.904;2022-07-04T02:27:47;11.30;;;7.40;;
66089;SDS011;53113;45.602;11.904;2022-07-04T02:30:13;9.60;;;7.10;;
66089;SDS011;53113;45.602;11.904;2022-07-04T02:32:38;10.50;;;6.60;;
66089;SDS011;53113;45.602;11.904;2022-07-04T02:35:05;9.10;;;6.00;;
66089;SDS011;53113;45.602;11.904;2022-07-04T02:37:31;11.00;;;6.10;;
66089;SDS011;53113;45.602;11.904;2022-07-04T02:39:57;9.90;;;6.30;;
66089;SDS011;53113;45.602;11.904;2022-07-04T02:42:23;10.80;;;6.70;;
66089;SDS011;53113;45.602;11.904;2022-07-04T02:44:49;11.80;;;7.00;;
66089;SDS011;53113;45.602;11.904;2022-07-04T02:47:15;11.50;;;7.20;;
66089;SDS011;53113;45.602;11.904;2022-07-04T02:49:41;11.40;;;6.80;;
66089;SDS011;53113;45.602;11.904;2022-07-04T02:52:07;10.00;;;6.40;;
66089;SDS011;53113;45.602;11.904;2022-07-04T02:54:33;11.80;;;7.50;;
66089;SDS011;53113;45.602;11.904;2022-07-04T02:56:59;9.70;;;6.20;;
66089;SDS011;53113;45.602;11.904;2022-07-04T02:59:25;9.50;;;5.60;;
66089;SDS011;53113;45.602;11.904;2022-07-04T03:01:51;10.30;;;6.20;;
66089;SDS011;53113;45.602;11.904;2022-07-04T03:04:17;9.40;;;6.00;;
66089;SDS011;53113;45.602;11.904;2022-07-04T03:06:42;11.00;;;5.90;;
66089;SDS011;53113;45.602;11.904;2022-07-04T03:09:08;9.10;;;5.90;;
66089;SDS011;53113;45.602;11.904;2022-07-04T03:11:35;10.00;;;5.50;;
66089;SDS011;53113;45.602;11.904;2022-07-04T03:14:01;9.00;;;5.40;;
66089;SDS011;53113;45.602;11.904;2022-07-04T03:16:27;9.50;;;5.20;;
66089;SDS011;53113;45.602;11.904;2022-07-04T03:18:53;10.70;;;5.20;;
66089;SDS011;53113;45.602;11.904;2022-07-04T03:21:19;8.50;;;5.00;;
66089;SDS011;53113;45.602;11.904;2022-07-04T03:23:45;10.10;;;5.00;;
66089;SDS011;53113;45.602;11.904;2022-07-04T03:26:24;8.10;;;5.90;;
66089;SDS011;53113;45.602;11.904;2022-07-04T03:31:17;8.50;;;4.90;;
66089;SDS011;53113;45.602;11.904;2022-07-04T03:33:43;8.30;;;5.00;;
66089;SDS011;53113;45.602;11.904;2022-07-04T03:36:09;8.90;;;5.50;;
66089;SDS011;53113;45.602;11.904;2022-07-04T03:38:35;10.10;;;5.60;;
66089;SDS011;53113;45.602;11.904;2022-07-04T03:41:01;11.90;;;6.30;;
66089;SDS011;53113;45.602;11.904;2022-07-04T03:43:27;8.60;;;5.90;;
66089;SDS011;53113;45.602;11.904;2022-07-04T03:45:52;9.40;;;5.80;;
66089;SDS011;53113;45.602;11.904;2022-07-04T03:48:18;10.40;;;6.00;;
66089;SDS011;53113;45.602;11.904;2022-07-04T03:50:51;9.30;;;5.90;;
66089;SDS011;53113;45.602;11.904;2022-07-04T03:53:17;10.00;;;5.80;;
66089;SDS011;53113;45.602;11.904;2022-07-04T03:55:45;10.60;;;5.80;;
66089;SDS011;53113;45.602;11.904;2022-07-04T03:58:12;8.90;;;5.60;;
66089;SDS011;53113;45.602;11.904;2022-07-04T04:00:38;8.60;;;5.20;;
66089;SDS011;53113;45.602;11.904;2022-07-04T04:03:04;9.20;;;5.00;;
66089;SDS011;53113;45.602;11.904;2022-07-04T04:05:49;9.20;;;5.80;;
66089;SDS011;53113;45.602;11.904;2022-07-04T04:08:15;9.30;;;5.80;;
66089;SDS011;53113;45.602;11.904;2022-07-04T04:10:41;11.30;;;5.80;;
66089;SDS011;53113;45.602;11.904;2022-07-04T04:13:08;10.50;;;5.80;;
66089;SDS011;53113;45.602;11.904;2022-07-04T04:15:34;10.20;;;6.10;;
66089;SDS011;53113;45.602;11.904;2022-07-04T04:17:59;11.80;;;6.20;;
66089;SDS011;53113;45.602;11.904;2022-07-04T04:20:26;11.00;;;6.30;;
66089;SDS011;53113;45.602;11.904;2022-07-04T04:22:52;12.30;;;6.90;;
66089;SDS011;53113;45.602;11.904;2022-07-04T04:25:18;11.30;;;7.00;;
66089;SDS011;53113;45.602;11.904;2022-07-04T04:27:44;13.10;;;7.40;;
66089;SDS011;53113;45.602;11.904;2022-07-04T04:30:10;12.10;;;6.70;;
66089;SDS011;53113;45.602;11.904;2022-07-04T04:32:36;12.00;;;6.10;;
66089;SDS011;53113;45.602;11.904;2022-07-04T04:35:02;12.90;;;6.70;;
66089;SDS011;53113;45.602;11.904;2022-07-04T04:37:28;10.40;;;6.00;;
66089;SDS011;53113;45.602;11.904;2022-07-04T04:39:54;13.20;;;7.30;;
66089;SDS011;53113;45.602;11.904;2022-07-04T04:42:20;9.80;;;6.30;;
66089;SDS011;53113;45.602;11.904;2022-07-04T04:44:46;11.50;;;6.10;;
66089;SDS011;53113;45.602;11.904;2022-07-04T04:47:13;10.00;;;6.40;;
66089;SDS011;53113;45.602;11.904;2022-07-04T04:49:39;9.70;;;6.30;;
66089;SDS011;53113;45.602;11.904;2022-07-04T04:52:04;11.60;;;6.10;;
66089;SDS011;53113;45.602;11.904;2022-07-04T04:54:31;10.00;;;5.50;;
66089;SDS011;53113;45.602;11.904;2022-07-04T04:57:00;10.70;;;5.90;;
66089;SDS011;53113;45.602;11.904;2022-07-04T04:59:27;10.60;;;5.60;;
66089;SDS011;53113;45.602;11.904;2022-07-04T05:01:55;11.10;;;5.70;;
66089;SDS011;53113;45.602;11.904;2022-07-04T05:04:22;10.20;;;5.40;;
66089;SDS011;53113;45.602;11.904;2022-07-04T05:06:48;9.00;;;4.90;;
66089;SDS011;53113;45.602;11.904;2022-07-04T05:09:14;10.30;;;5.60;;
66089;SDS011;53113;45.602;11.904;2022-07-04T05:11:39;7.80;;;4.60;;
66089;SDS011;53113;45.602;11.904;2022-07-04T05:14:05;7.80;;;5.00;;
66089;SDS011;53113;45.602;11.904;2022-07-04T05:16:30;7.60;;;4.30;;
66089;SDS011;53113;45.602;11.904;2022-07-04T05:18:56;9.10;;;4.80;;
66089;SDS011;53113;45.602;11.904;2022-07-04T05:21:22;7.80;;;4.30;;
66089;SDS011;53113;45.602;11.904;2022-07-04T05:23:53;10.40;;;4.90;;
66089;SDS011;53113;45.602;11.904;2022-07-04T05:26:20;12.10;;;4.40;;
66089;SDS011;53113;45.602;11.904;2022-07-04T05:28:47;9.10;;;4.40;;
66089;SDS011;53113;45.602;11.904;2022-07-04T05:31:13;11.00;;;4.50;;
66089;SDS011;53113;45.602;11.904;2022-07-04T05:33:40;10.10;;;4.30;;
66089;SDS011;53113;45.602;11.904;2022-07-04T05:36:06;11.40;;;5.00;;
66089;SDS011;53113;45.602;11.904;2022-07-04T05:38:32;7.50;;;4.10;;
66089;SDS011;53113;45.602;11.904;2022-07-04T05:40:58;7.70;;;4.30;;
66089;SDS011;53113;45.602;11.904;2022-07-04T05:43:24;9.30;;;4.20;;
66089;SDS011;53113;45.602;11.904;2022-07-04T05:45:52;9.10;;;4.10;;
66089;SDS011;53113;45.602;11.904;2022-07-04T05:48:18;9.90;;;4.20;;
66089;SDS011;53113;45.602;11.904;2022-07-04T05:50:45;8.00;;;3.80;;
66089;SDS011;53113;45.602;11.904;2022-07-04T05:53:11;7.40;;;4.10;;
66089;SDS011;53113;45.602;11.904;2022-07-04T05:55:37;7.90;;;4.10;;
66089;SDS011;53113;45.602;11.904;2022-07-04T05:58:03;8.40;;;4.50;;
66089;SDS011;53113;45.602;11.904;2022-07-04T06:00:28;8.80;;;4.10;;
66089;SDS011;53113;45.602;11.904;2022-07-04T06:02:54;8.00;;;4.10;;
66089;SDS011;53113;45.602;11.904;2022-07-04T06:05:20;7.60;;;4.00;;
66089;SDS011;53113;45.602;11.904;2022-07-04T06:07:46;7.20;;;3.60;;
66089;SDS011;53113;45.602;11.904;2022-07-04T06:10:13;8.10;;;4.40;;
66089;SDS011;53113;45.602;11.904;2022-07-04T06:12:40;8.20;;;3.70;;
66089;SDS011;53113;45.602;11.904;2022-07-04T06:15:06;9.10;;;4.20;;
66089;SDS011;53113;45.602;11.904;2022-07-04T06:17:35;9.40;;;4.10;;
66089;SDS011;53113;45.602;11.904;2022-07-04T06:20:02;8.40;;;4.20;;
66089;SDS011;53113;45.602;11.904;2022-07-04T06:22:37;7.60;;;4.00;;
66089;SDS011;53113;45.602;11.904;2022-07-04T06:25:11;9.30;;;4.40;;
66089;SDS011;53113;45.602;11.904;2022-07-04T06:27:38;9.80;;;3.80;;
66089;SDS011;53113;45.602;11.904;2022-07-04T06:30:05;12.30;;;7.10;;
66089;SDS011;53113;45.602;11.904;2022-07-04T06:32:40;7.60;;;4.00;;
66089;SDS011;53113;45.602;11.904;2022-07-04T06:35:17;11.50;;;6.60;;
66089;SDS011;53113;45.602;11.904;2022-07-04T06:38:06;14.80;;;10.10;;
66089;SDS011;53113;45.602;11.904;2022-07-04T06:40:33;9.40;;;4.70;;
66089;SDS011;53113;45.602;11.904;2022-07-04T06:43:00;8.60;;;4.90;;
66089;SDS011;53113;45.602;11.904;2022-07-04T06:45:27;7.90;;;4.20;;
66089;SDS011;53113;45.602;11.904;2022-07-04T06:47:52;9.20;;;4.40;;
66089;SDS011;53113;45.602;11.904;2022-07-04T06:50:18;7.00;;;3.90;;
66089;SDS011;53113;45.602;11.904;2022-07-04T06:52:44;9.60;;;4.20;;
66089;SDS011;53113;45.602;11.904;2022-07-04T06:55:11;9.00;;;4.00;;
66089;SDS011;53113;45.602;11.904;2022-07-04T06:57:37;8.00;;;4.50;;
66089;SDS011;53113;45.602;11.904;2022-07-04T07:00:04;8.90;;;4.20;;
66089;SDS011;53113;45.602;11.904;2022-07-04T07:02:35;9.50;;;4.70;;
66089;SDS011;53113;45.602;11.904;2022-07-04T07:05:03;8.90;;;4.10;;
66089;SDS011;53113;45.602;11.904;2022-07-04T07:07:30;7.20;;;3.80;;
66089;SDS011;53113;45.602;11.904;2022-07-04T07:09:56;7.40;;;3.60;;
66089;SDS011;53113;45.602;11.904;2022-07-04T07:12:22;8.60;;;4.30;;
66089;SDS011;53113;45.602;11.904;2022-07-04T07:14:49;8.60;;;4.00;;
66089;SDS011;53113;45.602;11.904;2022-07-04T07:17:16;8.60;;;3.90;;
66089;SDS011;53113;45.602;11.904;2022-07-04T07:19:42;8.10;;;3.50;;
66089;SDS011;53113;45.602;11.904;2022-07-04T07:22:09;10.20;;;4.00;;
66089;SDS011;53113;45.602;11.904;2022-07-04T07:24:36;9.80;;;3.70;;
66089;SDS011;53113;45.602;11.904;2022-07-04T07:27:02;8.60;;;3.70;;
66089;SDS011;53113;45.602;11.904;2022-07-04T07:29:28;8.60;;;3.80;;
66089;SDS011;53113;45.602;11.904;2022-07-04T07:31:55;7.10;;;3.70;;
66089;SDS011;53113;45.602;11.904;2022-07-04T07:34:21;8.30;;;3.90;;
66089;SDS011;53113;45.602;11.904;2022-07-04T07:36:47;8.20;;;3.50;;
66089;SDS011;53113;45.602;11.904;2022-07-04T07:39:13;8.20;;;3.70;;
66089;SDS011;53113;45.602;11.904;2022-07-04T07:41:38;10.10;;;3.80;;
66089;SDS011;53113;45.602;11.904;2022-07-04T07:44:04;9.80;;;3.50;;
66089;SDS011;53113;45.602;11.904;2022-07-04T07:46:30;7.50;;;3.60;;
66089;SDS011;53113;45.602;11.904;2022-07-04T07:48:56;7.50;;;3.50;;
66089;SDS011;53113;45.602;11.904;2022-07-04T07:51:28;7.60;;;3.80;;
66089;SDS011;53113;45.602;11.904;2022-07-04T07:53:54;7.00;;;3.60;;
66089;SDS011;53113;45.602;11.904;2022-07-04T07:56:19;6.60;;;3.40;;
66089;SDS011;53113;45.602;11.904;2022-07-04T07:58:46;8.00;;;4.10;;
66089;SDS011;53113;45.602;11.904;2022-07-04T08:01:11;8.60;;;3.80;;
66089;SDS011;53113;45.602;11.904;2022-07-04T08:03:37;7.00;;;4.10;;
66089;SDS011;53113;45.602;11.904;2022-07-04T08:06:22;7.20;;;3.90;;
66089;SDS011;53113;45.602;11.904;2022-07-04T08:08:48;10.80;;;3.80;;
66089;SDS011;53113;45.602;11.904;2022-07-04T08:11:13;8.60;;;3.70;;
66089;SDS011;53113;45.602;11.904;2022-07-04T08:13:40;8.00;;;3.40;;
66089;SDS011;53113;45.602;11.904;2022-07-04T08:16:06;6.50;;;3.50;;
66089;SDS011;53113;45.602;11.904;2022-07-04T08:18:33;8.70;;;3.70;;
66089;SDS011;53113;45.602;11.904;2022-07-04T08:20:59;8.00;;;3.50;;
66089;SDS011;53113;45.602;11.904;2022-07-04T08:23:26;7.50;;;3.40;;
66089;SDS011;53113;45.602;11.904;2022-07-04T08:25:53;8.10;;;4.00;;
66089;SDS011;53113;45.602;11.904;2022-07-04T08:28:19;8.50;;;3.70;;
66089;SDS011;53113;45.602;11.904;2022-07-04T08:30:45;8.80;;;3.30;;
66089;SDS011;53113;45.602;11.904;2022-07-04T08:33:11;7.80;;;3.30;;
66089;SDS011;53113;45.602;11.904;2022-07-04T08:35:37;7.90;;;3.80;;
66089;SDS011;53113;45.602;11.904;2022-07-04T08:38:03;8.00;;;3.70;;
66089;SDS011;53113;45.602;11.904;2022-07-04T08:40:29;6.90;;;3.40;;
66089;SDS011;53113;45.602;11.904;2022-07-04T08:42:57;6.50;;;3.40;;
66089;SDS011;53113;45.602;11.904;2022-07-04T08:45:27;7.70;;;3.70;;
66089;SDS011;53113;45.602;11.904;2022-07-04T08:48:01;5.50;;;2.90;;
66089;SDS011;53113;45.602;11.904;2022-07-04T08:50:30;7.60;;;3.20;;
66089;SDS011;53113;45.602;11.904;2022-07-04T08:53:06;7.80;;;3.40;;
66089;SDS011;53113;45.602;11.904;2022-07-04T08:55:36;7.60;;;3.10;;
66089;SDS011;53113;45.602;11.904;2022-07-04T08:58:24;8.20;;;3.20;;
66089;SDS011;53113;45.602;11.904;2022-07-04T09:00:54;9.00;;;3.50;;
66089;SDS011;53113;45.602;11.904;2022-07-04T09:03:23;9.40;;;3.60;;
66089;SDS011;53113;45.602;11.904;2022-07-04T09:05:50;6.00;;;2.90;;
66089;SDS011;53113;45.602;11.904;2022-07-04T09:08:17;6.50;;;3.30;;
66089;SDS011;53113;45.602;11.904;2022-07-04T09:10:43;7.00;;;3.60;;
66089;SDS011;53113;45.602;11.904;2022-07-04T09:13:11;6.70;;;3.60;;
66089;SDS011;53113;45.602;11.904;2022-07-04T09:15:40;7.50;;;3.70;;
66089;SDS011;53113;45.602;11.904;2022-07-04T09:20:52;7.30;;;3.50;;
66089;SDS011;53113;45.602;11.904;2022-07-04T09:23:20;7.30;;;3.40;;
66089;SDS011;53113;45.602;11.904;2022-07-04T09:25:49;8.40;;;3.20;;
66089;SDS011;53113;45.602;11.904;2022-07-04T09:28:31;6.80;;;3.10;;
66089;SDS011;53113;45.602;11.904;2022-07-04T09:30:58;8.20;;;3.20;;
66089;SDS011;53113;45.602;11.904;2022-07-04T09:33:43;6.90;;;2.80;;
66089;SDS011;53113;45.602;11.904;2022-07-04T09:36:14;6.40;;;3.20;;
66089;SDS011;53113;45.602;11.904;2022-07-04T09:38:41;6.60;;;3.80;;
66089;SDS011;53113;45.602;11.904;2022-07-04T09:43:59;8.30;;;3.10;;
66089;SDS011;53113;45.602;11.904;2022-07-04T09:46:28;6.00;;;2.60;;
66089;SDS011;53113;45.602;11.904;2022-07-04T09:48:55;4.30;;;2.20;;
66089;SDS011;53113;45.602;11.904;2022-07-04T09:51:35;5.20;;;2.20;;
66089;SDS011;53113;45.602;11.904;2022-07-04T09:56:49;7.90;;;2.50;;
66089;SDS011;53113;45.602;11.904;2022-07-04T09:59:19;5.90;;;2.70;;
66089;SDS011;53113;45.602;11.904;2022-07-04T10:01:46;7.00;;;2.50;;
66089;SDS011;53113;45.602;11.904;2022-07-04T10:04:13;6.10;;;2.30;;
66089;SDS011;53113;45.602;11.904;2022-07-04T10:06:40;7.10;;;2.40;;
66089;SDS011;53113;45.602;11.904;2022-07-04T10:09:08;5.50;;;2.30;;
66089;SDS011;53113;45.602;11.904;2022-07-04T10:11:35;5.20;;;2.90;;
66089;SDS011;53113;45.602;11.904;2022-07-04T10:14:04;5.50;;;2.60;;
66089;SDS011;53113;45.602;11.904;2022-07-04T10:16:32;5.60;;;2.60;;
66089;SDS011;53113;45.602;11.904;2022-07-04T10:18:58;7.40;;;3.00;;
66089;SDS011;53113;45.602;11.904;2022-07-04T10:21:25;7.50;;;3.00;;
66089;SDS011;53113;45.602;11.904;2022-07-04T10:23:52;6.10;;;3.00;;
66089;SDS011;53113;45.602;11.904;2022-07-04T10:26:18;5.90;;;2.80;;
66089;SDS011;53113;45.602;11.904;2022-07-04T10:28:49;7.40;;;2.90;;
66089;SDS011;53113;45.602;11.904;2022-07-04T10:31:20;6.70;;;2.50;;
66089;SDS011;53113;45.602;11.904;2022-07-04T10:33:48;4.70;;;2.40;;
66089;SDS011;53113;45.602;11.904;2022-07-04T10:38:49;9.90;;;2.80;;
66089;SDS011;53113;45.602;11.904;2022-07-04T10:41:18;6.50;;;2.30;;
66089;SDS011;53113;45.602;11.904;2022-07-04T10:43:53;6.00;;;2.30;;
66089;SDS011;53113;45.602;11.904;2022-07-04T10:46:23;5.20;;;2.40;;
66089;SDS011;53113;45.602;11.904;2022-07-04T10:51:20;5.20;;;2.30;;
66089;SDS011;53113;45.602;11.904;2022-07-04T10:54:00;5.30;;;2.30;;
66089;SDS011;53113;45.602;11.904;2022-07-04T10:58:55;6.30;;;2.30;;
66089;SDS011;53113;45.602;11.904;2022-07-04T11:01:25;5.10;;;2.40;;
66089;SDS011;53113;45.602;11.904;2022-07-04T11:03:52;6.40;;;2.20;;
66089;SDS011;53113;45.602;11.904;2022-07-04T11:09:14;5.40;;;2.20;;
66089;SDS011;53113;45.602;11.904;2022-07-04T11:11:48;4.20;;;2.20;;
66089;SDS011;53113;45.602;11.904;2022-07-04T11:17:19;5.20;;;2.30;;
66089;SDS011;53113;45.602;11.904;2022-07-04T11:19:46;4.70;;;2.20;;
66089;SDS011;53113;45.602;11.904;2022-07-04T11:22:20;6.30;;;2.20;;
66089;SDS011;53113;45.602;11.904;2022-07-04T11:24:48;7.00;;;2.40;;
66089;SDS011;53113;45.602;11.904;2022-07-04T11:27:14;5.70;;;2.20;;
66089;SDS011;53113;45.602;11.904;2022-07-04T11:29:50;5.10;;;2.40;;
66089;SDS011;53113;45.602;11.904;2022-07-04T11:32:18;6.50;;;2.30;;
66089;SDS011;53113;45.602;11.904;2022-07-04T11:34:45;6.10;;;2.40;;
66089;SDS011;53113;45.602;11.904;2022-07-04T11:37:12;5.40;;;2.40;;
66089;SDS011;53113;45.602;11.904;2022-07-04T11:39:38;6.80;;;2.50;;
66089;SDS011;53113;45.602;11.904;2022-07-04T11:42:04;5.40;;;2.60;;
66089;SDS011;53113;45.602;11.904;2022-07-04T11:44:49;5.40;;;2.60;;
66089;SDS011;53113;45.602;11.904;2022-07-04T11:47:40;6.00;;;2.90;;
66089;SDS011;53113;45.602;11.904;2022-07-04T11:50:08;7.50;;;2.80;;
66089;SDS011;53113;45.602;11.904;2022-07-04T11:55:09;7.00;;;3.00;;
66089;SDS011;53113;45.602;11.904;2022-07-04T11:57:37;7.40;;;3.00;;
66089;SDS011;53113;45.602;11.904;2022-07-04T12:00:07;7.50;;;3.00;;
66089;SDS011;53113;45.602;11.904;2022-07-04T12:02:38;5.10;;;2.80;;
66089;SDS011;53113;45.602;11.904;2022-07-04T12:05:10;5.40;;;2.50;;
66089;SDS011;53113;45.602;11.904;2022-07-04T12:07:37;7.20;;;3.00;;
66089;SDS011;53113;45.602;11.904;2022-07-04T12:10:08;4.90;;;2.60;;
66089;SDS011;53113;45.602;11.904;2022-07-04T12:12:50;6.60;;;2.50;;
66089;SDS011;53113;45.602;11.904;2022-07-04T12:15:20;5.10;;;2.40;;
66089;SDS011;53113;45.602;11.904;2022-07-04T12:20:19;4.30;;;2.30;;
66089;SDS011;53113;45.602;11.904;2022-07-04T12:22:51;4.60;;;2.40;;
66089;SDS011;53113;45.602;11.904;2022-07-04T12:25:22;5.30;;;2.60;;
66089;SDS011;53113;45.602;11.904;2022-07-04T12:27:56;5.70;;;2.60;;
66089;SDS011;53113;45.602;11.904;2022-07-04T12:30:27;5.90;;;2.60;;
66089;SDS011;53113;45.602;11.904;2022-07-04T12:33:00;6.70;;;2.60;;
66089;SDS011;53113;45.602;11.904;2022-07-04T12:38:29;6.00;;;2.20;;
66089;SDS011;53113;45.602;11.904;2022-07-04T12:41:01;7.70;;;2.60;;
66089;SDS011;53113;45.602;11.904;2022-07-04T12:48:51;7.00;;;2.10;;
66089;SDS011;53113;45.602;11.904;2022-07-04T12:51:21;5.40;;;1.90;;
66089;SDS011;53113;45.602;11.904;2022-07-04T12:53:48;7.90;;;2.10;;
66089;SDS011;53113;45.602;11.904;2022-07-04T12:56:27;5.00;;;1.70;;
66089;SDS011;53113;45.602;11.904;2022-07-04T12:59:01;5.60;;;1.80;;
66089;SDS011;53113;45.602;11.904;2022-07-04T13:01:29;5.90;;;1.50;;
66089;SDS011;53113;45.602;11.904;2022-07-04T13:03:56;7.50;;;1.90;;
66089;SDS011;53113;45.602;11.904;2022-07-04T13:06:23;7.20;;;1.80;;
66089;SDS011;53113;45.602;11.904;2022-07-04T13:08:50;6.90;;;1.70;;
66089;SDS011;53113;45.602;11.904;2022-07-04T13:11:18;7.80;;;2.10;;
66089;SDS011;53113;45.602;11.904;2022-07-04T13:14:03;8.70;;;1.90;;
66089;SDS011;53113;45.602;11.904;2022-07-04T13:16:29;6.20;;;2.00;;
66089;SDS011;53113;45.602;11.904;2022-07-04T13:18:56;4.70;;;1.80;;
66089;SDS011;53113;45.602;11.904;2022-07-04T13:21:22;5.10;;;1.80;;
66089;SDS011;53113;45.602;11.904;2022-07-04T13:23:51;5.70;;;2.20;;
66089;SDS011;53113;45.602;11.904;2022-07-04T13:26:18;4.20;;;1.90;;
66089;SDS011;53113;45.602;11.904;2022-07-04T13:28:44;5.10;;;2.00;;
66089;SDS011;53113;45.602;11.904;2022-07-04T13:31:11;6.10;;;1.80;;
66089;SDS011;53113;45.602;11.904;2022-07-04T13:33:36;5.50;;;1.80;;
66089;SDS011;53113;45.602;11.904;2022-07-04T13:36:03;3.90;;;1.70;;
66089;SDS011;53113;45.602;11.904;2022-07-04T13:38:30;4.00;;;1.40;;
66089;SDS011;53113;45.602;11.904;2022-07-04T13:40:55;8.00;;;1.70;;
66089;SDS011;53113;45.602;11.904;2022-07-04T13:43:22;4.80;;;2.00;;
66089;SDS011;53113;45.602;11.904;2022-07-04T13:45:49;5.20;;;1.90;;
66089;SDS011;53113;45.602;11.904;2022-07-04T13:48:15;6.30;;;1.80;;
66089;SDS011;53113;45.602;11.904;2022-07-04T13:50:41;6.30;;;1.80;;
66089;SDS011;53113;45.602;11.904;2022-07-04T13:53:07;5.10;;;1.90;;
66089;SDS011;53113;45.602;11.904;2022-07-04T13:55:34;6.40;;;1.80;;
66089;SDS011;53113;45.602;11.904;2022-07-04T13:58:04;3.20;;;1.50;;
66089;SDS011;53113;45.602;11.904;2022-07-04T14:00:32;4.30;;;1.50;;
66089;SDS011;53113;45.602;11.904;2022-07-04T14:02:59;7.00;;;1.60;;
66089;SDS011;53113;45.602;11.904;2022-07-04T14:05:25;4.30;;;1.40;;
66089;SDS011;53113;45.602;11.904;2022-07-04T14:07:51;3.50;;;1.40;;
66089;SDS011;53113;45.602;11.904;2022-07-04T14:10:18;4.60;;;1.40;;
66089;SDS011;53113;45.602;11.904;2022-07-04T14:12:44;4.60;;;1.60;;
66089;SDS011;53113;45.602;11.904;2022-07-04T14:15:10;4.20;;;1.60;;
66089;SDS011;53113;45.602;11.904;2022-07-04T14:17:36;4.60;;;1.40;;
66089;SDS011;53113;45.602;11.904;2022-07-04T14:20:04;4.50;;;1.60;;
66089;SDS011;53113;45.602;11.904;2022-07-04T14:22:36;4.10;;;1.60;;
66089;SDS011;53113;45.602;11.904;2022-07-04T14:25:04;3.50;;;1.50;;
66089;SDS011;53113;45.602;11.904;2022-07-04T14:27:31;3.80;;;1.40;;
66089;SDS011;53113;45.602;11.904;2022-07-04T14:29:57;4.00;;;1.40;;
66089;SDS011;53113;45.602;11.904;2022-07-04T14:32:22;5.10;;;1.30;;
66089;SDS011;53113;45.602;11.904;2022-07-04T14:34:48;3.20;;;1.30;;
66089;SDS011;53113;45.602;11.904;2022-07-04T14:37:14;2.90;;;1.60;;
66089;SDS011;53113;45.602;11.904;2022-07-04T14:39:40;4.70;;;1.50;;
66089;SDS011;53113;45.602;11.904;2022-07-04T14:42:05;3.20;;;1.50;;
66089;SDS011;53113;45.602;11.904;2022-07-04T14:44:31;4.10;;;1.60;;
66089;SDS011;53113;45.602;11.904;2022-07-04T14:47:06;4.20;;;1.60;;
66089;SDS011;53113;45.602;11.904;2022-07-04T14:49:33;5.30;;;1.70;;
66089;SDS011;53113;45.602;11.904;2022-07-04T14:51:59;4.70;;;1.90;;
66089;SDS011;53113;45.602;11.904;2022-07-04T14:54:25;3.90;;;1.60;;
66089;SDS011;53113;45.602;11.904;2022-07-04T14:56:52;4.70;;;1.60;;
66089;SDS011;53113;45.602;11.904;2022-07-04T14:59:18;3.60;;;1.50;;
66089;SDS011;53113;45.602;11.904;2022-07-04T15:01:44;5.10;;;1.80;;
66089;SDS011;53113;45.602;11.904;2022-07-04T15:04:10;4.70;;;1.70;;
66089;SDS011;53113;45.602;11.904;2022-07-04T15:06:35;5.70;;;2.00;;
66089;SDS011;53113;45.602;11.904;2022-07-04T15:09:04;4.90;;;1.70;;
66089;SDS011;53113;45.602;11.904;2022-07-04T15:11:34;5.30;;;1.60;;